createdAt,value
2023-01-29T00:00:10.952Z,22.00
2023-01-29T00:03:17.664Z,15.15
2023-01-29T00:06:21.302Z,14.23
2023-01-29T00:09:24.882Z,16.50
2023-01-29T00:12:29.012Z,18.70
2023-01-29T00:15:32.636Z,35.53
2023-01-29T00:18:39.971Z,35.80
2023-01-29T00:21:44.056Z,36.40
2023-01-29T00:24:47.230Z,18.40
2023-01-29T00:27:51.120Z,20.48
2023-01-29T00:30:56.557Z,16.67
2023-01-29T00:33:59.719Z,16.80
2023-01-29T00:37:05.756Z,25.53
2023-01-29T00:40:09.755Z,30.27
2023-01-29T00:43:32.371Z,30.20
2023-01-29T00:46:35.337Z,36.57
2023-01-29T00:49:39.608Z,30.00
2023-01-29T00:52:43.543Z,37.50
2023-01-29T00:55:46.898Z,36.10
2023-01-29T00:58:50.077Z,29.73
2023-01-29T01:02:12.455Z,34.35
2023-01-29T01:05:21.407Z,29.60
2023-01-29T01:08:42.914Z,18.97
2023-01-29T01:11:46.488Z,21.85
2023-01-29T01:14:51.035Z,20.95
2023-01-29T01:18:00.145Z,19.97
2023-01-29T01:21:03.522Z,20.35
2023-01-29T01:24:06.689Z,23.50
2023-01-29T01:27:10.308Z,23.75
2023-01-29T01:30:16.885Z,25.45
2023-01-29T01:33:21.106Z,27.38
2023-01-29T01:36:24.802Z,29.88
2023-01-29T01:39:28.826Z,35.93
2023-01-29T01:42:32.667Z,27.23
2023-01-29T01:45:37.543Z,12.60
2023-01-29T01:48:40.972Z,16.63
2023-01-29T01:51:49.778Z,14.65
2023-01-29T01:54:53.695Z,16.88
2023-01-29T01:58:09.823Z,20.08
2023-01-29T02:01:13.448Z,31.90
2023-01-29T02:04:43.793Z,19.27
2023-01-29T02:08:08.665Z,32.75
2023-01-29T02:11:11.515Z,75.37
2023-01-29T02:14:14.399Z,96.90
2023-01-29T02:17:20.514Z,56.67
2023-01-29T02:20:27.800Z,64.87
2023-01-29T02:23:36.617Z,40.03
2023-01-29T02:26:56.898Z,41.83
2023-01-29T02:30:17.975Z,31.33
2023-01-29T02:33:31.761Z,26.65
2023-01-29T02:36:47.797Z,19.20
2023-01-29T02:40:10.419Z,21.33
2023-01-29T02:43:26.010Z,22.10
2023-01-29T02:47:02.257Z,25.40
2023-01-29T02:50:22.995Z,19.55
2023-01-29T02:54:03.312Z,22.27
2023-01-29T02:57:22.323Z,29.25
2023-01-29T03:00:35.797Z,24.77
2023-01-29T03:03:46.340Z,23.23
2023-01-29T03:06:55.109Z,19.70
2023-01-29T03:09:58.814Z,26.00
2023-01-29T03:13:30.290Z,23.60
2023-01-29T03:16:39.880Z,14.77
2023-01-29T03:19:47.842Z,32.75
2023-01-29T03:23:03.327Z,19.80
2023-01-29T03:26:25.900Z,17.07
2023-01-29T03:29:59.139Z,15.63
2023-01-29T03:33:20.209Z,22.73
2023-01-29T03:36:38.566Z,8.77
2023-01-29T03:39:43.002Z,11.07
2023-01-29T03:43:08.979Z,6.90
2023-01-29T03:46:48.892Z,7.25
2023-01-29T03:50:06.131Z,6.22
2023-01-29T03:53:13.915Z,5.20
2023-01-29T03:56:41.754Z,7.93
2023-01-29T04:00:23.812Z,8.45
2023-01-29T04:03:44.856Z,10.63
2023-01-29T04:06:51.727Z,11.07
2023-01-29T04:10:08.647Z,10.60
2023-01-29T04:13:16.264Z,8.80
2023-01-29T04:16:30.115Z,7.25
2023-01-29T04:19:55.973Z,7.60
2023-01-29T04:22:59.720Z,7.43
2023-01-29T04:26:40.484Z,5.67
2023-01-29T04:29:58.822Z,6.20
2023-01-29T04:33:20.579Z,3.60
2023-01-29T04:36:39.015Z,2.87
2023-01-29T04:39:49.456Z,3.40
2023-01-29T04:43:10.320Z,2.67
2023-01-29T04:46:22.405Z,3.08
2023-01-29T04:49:31.591Z,2.90
2023-01-29T04:53:05.749Z,3.20
2023-01-29T04:56:19.460Z,3.92
2023-01-29T04:59:46.854Z,3.07
2023-01-29T05:02:50.112Z,3.03
2023-01-29T05:05:55.226Z,3.47
2023-01-29T05:08:58.574Z,3.92
2023-01-29T05:12:03.408Z,4.40
2023-01-29T05:15:13.560Z,7.53
2023-01-29T05:18:17.296Z,8.00
2023-01-29T05:21:23.603Z,4.40
2023-01-29T05:24:27.699Z,6.60
2023-01-29T05:27:54.380Z,4.50
2023-01-29T05:30:58.999Z,4.20
2023-01-29T05:34:02.703Z,4.00
2023-01-29T05:37:10.903Z,6.15
2023-01-29T05:40:14.840Z,4.35
2023-01-29T05:43:21.363Z,5.27
2023-01-29T05:46:25.861Z,5.10
2023-01-29T05:49:30.142Z,5.97
2023-01-29T05:52:36.861Z,9.18
2023-01-29T05:55:46.486Z,6.17
2023-01-29T05:58:50.101Z,3.30
2023-01-29T06:01:54.129Z,2.78
2023-01-29T06:04:58.439Z,2.63
2023-01-29T06:08:02.360Z,3.47
2023-01-29T06:11:09.555Z,2.53
2023-01-29T06:14:13.549Z,2.50
2023-01-29T06:17:17.177Z,4.33
2023-01-29T06:20:21.218Z,4.40
2023-01-29T06:23:24.876Z,4.75
2023-01-29T06:26:28.957Z,3.95
2023-01-29T06:29:32.706Z,4.38
2023-01-29T06:32:35.791Z,2.63
2023-01-29T06:35:39.632Z,2.60
2023-01-29T06:38:43.336Z,3.27
2023-01-29T06:41:46.978Z,2.78
2023-01-29T06:44:51.047Z,3.45
2023-01-29T06:47:54.598Z,3.35
2023-01-29T06:51:03.303Z,3.65
2023-01-29T06:54:08.854Z,4.50
2023-01-29T06:57:12.923Z,3.42
2023-01-29T07:00:17.812Z,2.80
2023-01-29T07:03:21.991Z,2.88
2023-01-29T07:06:30.182Z,4.47
2023-01-29T07:09:33.473Z,4.28
2023-01-29T07:12:37.438Z,3.85
2023-01-29T07:15:41.282Z,5.32
2023-01-29T07:18:44.537Z,5.38
2023-01-29T07:21:48.694Z,4.87
2023-01-29T07:24:52.279Z,6.47
2023-01-29T07:27:56.023Z,12.45
2023-01-29T07:31:00.118Z,9.63
2023-01-29T07:34:08.827Z,9.40
2023-01-29T07:37:12.549Z,6.85
2023-01-29T07:40:16.483Z,10.90
2023-01-29T07:43:19.802Z,12.90
2023-01-29T07:46:23.142Z,13.65
2023-01-29T07:49:26.067Z,12.38
2023-01-29T07:52:34.312Z,11.57
2023-01-29T07:55:37.205Z,12.43
2023-01-29T07:58:40.579Z,11.93
2023-01-29T08:01:43.730Z,11.73
2023-01-29T08:04:47.283Z,12.77
2023-01-29T08:08:06.082Z,10.25
2023-01-29T08:11:10.422Z,12.95
2023-01-29T08:14:14.339Z,13.35
2023-01-29T08:17:19.589Z,13.07
2023-01-29T08:20:25.021Z,10.48
2023-01-29T08:23:28.226Z,7.95
2023-01-29T08:26:31.223Z,11.27
2023-01-29T08:29:34.145Z,10.18
2023-01-29T08:32:38.143Z,12.27
2023-01-29T08:35:42.013Z,16.05
2023-01-29T08:38:46.202Z,17.00
2023-01-29T08:41:49.824Z,15.65
2023-01-29T08:44:53.950Z,15.48
2023-01-29T08:47:57.475Z,15.73
2023-01-29T08:51:03.138Z,13.75
2023-01-29T08:54:06.907Z,14.50
2023-01-29T08:57:10.529Z,14.57
2023-01-29T09:00:15.890Z,15.40
2023-01-29T09:03:19.802Z,17.13
2023-01-29T09:06:23.417Z,20.65
2023-01-29T09:09:27.018Z,20.77
2023-01-29T09:12:31.305Z,21.80
2023-01-29T09:15:34.942Z,27.25
2023-01-29T09:18:38.906Z,27.47
2023-01-29T09:21:42.760Z,26.33
2023-01-29T09:24:48.394Z,25.00
2023-01-29T09:27:51.554Z,29.63
2023-01-29T09:30:55.306Z,41.03
2023-01-29T09:33:58.353Z,41.05
2023-01-29T09:37:02.237Z,41.92
2023-01-29T09:40:05.593Z,36.22
2023-01-29T09:43:48.770Z,36.33
2023-01-29T09:46:53.587Z,31.20
2023-01-29T09:50:06.279Z,31.60
2023-01-29T09:53:46.205Z,36.50
2023-01-29T09:56:55.069Z,34.40
2023-01-29T09:59:58.829Z,36.47
2023-01-29T10:03:08.891Z,34.60
2023-01-29T10:06:27.926Z,37.45
2023-01-29T10:10:04.969Z,40.50
2023-01-29T10:13:20.662Z,58.65
2023-01-29T10:16:52.342Z,56.80
2023-01-29T10:20:23.987Z,50.50
2023-01-29T10:23:31.921Z,44.77
2023-01-29T10:26:38.632Z,37.28
2023-01-29T10:29:44.955Z,34.83
2023-01-29T10:32:52.094Z,46.30
2023-01-29T10:36:01.693Z,42.35
2023-01-29T10:39:06.893Z,36.47
2023-01-29T10:42:19.944Z,39.55
2023-01-29T10:45:31.437Z,35.85
2023-01-29T10:48:37.822Z,39.88
2023-01-29T10:51:56.854Z,51.53
2023-01-29T10:55:20.721Z,42.97
2023-01-29T10:58:42.472Z,45.08
2023-01-29T11:01:46.195Z,48.95
2023-01-29T11:04:49.902Z,44.87
2023-01-29T11:08:22.538Z,59.47
2023-01-29T11:11:46.158Z,48.55
2023-01-29T11:14:54.861Z,50.22
2023-01-29T11:18:03.919Z,67.20
2023-01-29T11:21:07.465Z,48.45
2023-01-29T11:24:20.900Z,37.67
2023-01-29T11:27:30.145Z,30.80
2023-01-29T11:30:40.736Z,32.10
2023-01-29T11:33:45.934Z,28.35
2023-01-29T11:37:03.145Z,31.03
2023-01-29T11:40:19.623Z,28.70
2023-01-29T11:43:33.954Z,25.85
2023-01-29T11:46:40.680Z,25.35
2023-01-29T11:49:51.196Z,23.88
2023-01-29T11:52:55.752Z,28.40
2023-01-29T11:55:59.331Z,24.88
2023-01-29T11:59:05.099Z,26.03
2023-01-29T12:02:20.655Z,40.72
2023-01-29T12:05:25.963Z,68.65
2023-01-29T12:08:36.303Z,75.93
2023-01-29T12:11:40.023Z,54.35
2023-01-29T12:14:45.134Z,56.70
2023-01-29T12:18:06.623Z,70.88
2023-01-29T12:21:29.073Z,73.70
2023-01-29T12:24:53.884Z,57.72
2023-01-29T12:28:30.059Z,75.50
2023-01-29T12:31:54.852Z,89.60
2023-01-29T12:35:27.025Z,76.13
2023-01-29T12:38:31.208Z,49.35
2023-01-29T12:41:56.586Z,39.63
2023-01-29T12:45:03.640Z,26.95
2023-01-29T12:48:12.304Z,29.98
2023-01-29T12:51:25.114Z,29.13
2023-01-29T12:54:49.683Z,29.35
2023-01-29T12:58:25.410Z,54.08
2023-01-29T13:01:39.725Z,39.72
2023-01-29T13:04:48.832Z,46.47
2023-01-29T13:07:59.197Z,38.20
2023-01-29T13:11:11.401Z,47.38
2023-01-29T13:14:41.615Z,42.30
2023-01-29T13:17:50.628Z,82.78
2023-01-29T13:20:55.470Z,66.20
2023-01-29T13:24:05.179Z,132.93
2023-01-29T13:27:18.377Z,52.72
2023-01-29T13:30:34.635Z,81.43
2023-01-29T13:33:38.681Z,63.42
2023-01-29T13:36:50.991Z,43.90
2023-01-29T13:39:56.373Z,41.08
2023-01-29T13:43:00.619Z,42.85
2023-01-29T13:46:14.024Z,40.93
2023-01-29T13:49:27.820Z,36.75
2023-01-29T13:52:46.271Z,30.17
2023-01-29T13:55:49.752Z,32.90
2023-01-29T13:58:54.911Z,34.97
2023-01-29T14:02:03.271Z,42.63
2023-01-29T14:05:30.998Z,45.15
2023-01-29T14:08:38.728Z,41.13
2023-01-29T14:11:49.160Z,33.95
2023-01-29T14:15:26.896Z,45.15
2023-01-29T14:18:32.725Z,45.67
2023-01-29T14:21:39.504Z,40.85
2023-01-29T14:24:43.690Z,42.97
2023-01-29T14:27:50.731Z,39.30
2023-01-29T14:30:54.497Z,39.97
2023-01-29T14:34:04.198Z,27.55
2023-01-29T14:37:16.332Z,25.15
2023-01-29T14:40:20.412Z,32.13
2023-01-29T14:43:24.161Z,39.50
2023-01-29T14:46:36.362Z,33.83
2023-01-29T14:49:54.511Z,35.13
2023-01-29T14:53:06.452Z,30.15
2023-01-29T14:56:15.588Z,32.38
2023-01-29T14:59:38.456Z,33.50
2023-01-29T15:02:46.090Z,21.77
2023-01-29T15:05:51.775Z,25.40
2023-01-29T15:09:05.183Z,23.05
2023-01-29T15:12:43.122Z,26.50
2023-01-29T15:15:54.928Z,27.23
2023-01-29T15:19:16.401Z,20.48
2023-01-29T15:22:22.423Z,37.60
2023-01-29T15:25:27.413Z,25.25
2023-01-29T15:28:32.658Z,50.90
2023-01-29T15:31:36.429Z,44.53
2023-01-29T15:34:44.452Z,23.95
2023-01-29T15:38:03.335Z,30.88
2023-01-29T15:41:21.295Z,33.35
2023-01-29T15:44:25.311Z,24.13
2023-01-29T15:47:33.105Z,25.25
2023-01-29T15:50:40.851Z,31.27
2023-01-29T15:53:49.557Z,38.13
2023-01-29T15:56:54.576Z,23.33
2023-01-29T15:59:59.447Z,33.55
2023-01-29T16:03:15.917Z,30.40
2023-01-29T16:06:19.921Z,49.53
2023-01-29T16:09:28.463Z,46.85
2023-01-29T16:12:35.309Z,34.83
2023-01-29T16:15:41.306Z,54.77
2023-01-29T16:18:59.555Z,51.75
2023-01-29T16:22:07.271Z,67.22
2023-01-29T16:25:16.551Z,52.17
2023-01-29T16:28:20.572Z,40.75
2023-01-29T16:31:28.230Z,52.97
2023-01-29T16:34:35.944Z,34.72
2023-01-29T16:37:39.913Z,37.05
2023-01-29T16:41:15.140Z,41.72
2023-01-29T16:44:21.857Z,56.95
2023-01-29T16:47:28.695Z,62.40
2023-01-29T16:50:40.503Z,91.38
2023-01-29T16:53:57.309Z,99.55
2023-01-29T16:57:02.511Z,201.00
2023-01-29T17:00:09.306Z,104.95
2023-01-29T17:03:15.229Z,160.20
2023-01-29T17:06:26.870Z,63.90
2023-01-29T17:09:34.651Z,89.70
2023-01-29T17:12:39.082Z,99.57
2023-01-29T17:15:44.043Z,65.88
2023-01-29T17:18:47.691Z,190.70
2023-01-29T17:21:52.146Z,95.45
2023-01-29T17:24:55.828Z,67.85
2023-01-29T17:28:02.729Z,86.63
2023-01-29T17:31:08.354Z,189.07
2023-01-29T17:34:16.760Z,108.47
2023-01-29T17:37:20.706Z,75.10
2023-01-29T17:40:32.365Z,68.25
2023-01-29T17:43:36.110Z,139.93
2023-01-29T17:46:40.528Z,83.60
2023-01-29T17:49:44.494Z,80.23
2023-01-29T17:52:47.692Z,92.78
2023-01-29T17:55:51.279Z,98.50
2023-01-29T17:58:55.335Z,41.17
2023-01-29T18:01:59.330Z,68.00
2023-01-29T18:05:03.662Z,61.00
2023-01-29T18:08:06.696Z,62.63
2023-01-29T18:11:13.385Z,60.95
2023-01-29T18:14:16.746Z,51.30
2023-01-29T18:17:23.281Z,47.50
2023-01-29T18:20:26.511Z,69.10
2023-01-29T18:23:32.126Z,75.72
2023-01-29T18:26:36.537Z,122.18
2023-01-29T18:29:40.114Z,92.70
2023-01-29T18:32:43.001Z,36.88
2023-01-29T18:35:48.945Z,58.47
2023-01-29T18:38:52.606Z,42.92
2023-01-29T18:41:56.078Z,35.83
2023-01-29T18:44:59.322Z,51.50
2023-01-29T18:48:03.505Z,32.45
2023-01-29T18:51:06.615Z,54.43
2023-01-29T18:54:13.730Z,42.22
2023-01-29T18:58:25.991Z,47.53
2023-01-29T19:00:41.402Z,39.87
2023-01-29T19:03:45.223Z,52.38
2023-01-29T19:06:49.621Z,60.20
2023-01-29T19:09:53.103Z,70.95
2023-01-29T19:12:57.274Z,56.83
2023-01-29T19:16:00.337Z,47.17
2023-01-29T19:19:04.469Z,31.05
2023-01-29T19:22:08.486Z,47.93
2023-01-29T19:25:13.495Z,23.23
2023-01-29T19:28:16.449Z,40.10
2023-01-29T19:31:20.355Z,41.83
2023-01-29T19:34:24.541Z,29.77
2023-01-29T19:37:28.714Z,21.83
2023-01-29T19:40:32.261Z,37.70
2023-01-29T19:43:36.299Z,34.60
2023-01-29T19:46:39.556Z,45.22
2023-01-29T19:49:44.030Z,29.13
2023-01-29T19:52:51.518Z,35.87
2023-01-29T19:56:05.514Z,22.40
2023-01-29T19:59:08.383Z,28.48
2023-01-29T20:02:12.362Z,44.57
2023-01-29T20:05:18.892Z,36.30
2023-01-29T20:08:24.660Z,27.13
2023-01-29T20:11:28.307Z,33.30
2023-01-29T20:14:31.607Z,61.70
2023-01-29T20:17:34.579Z,13.68
2023-01-29T20:20:49.699Z,33.95
2023-01-29T20:23:53.021Z,30.20
2023-01-29T20:26:56.987Z,30.90
2023-01-29T20:30:00.315Z,39.25
2023-01-29T20:33:04.540Z,39.50
2023-01-29T20:36:10.790Z,65.30
2023-01-29T20:39:14.098Z,29.77
2023-01-29T20:42:17.681Z,30.98
2023-01-29T20:45:22.833Z,42.40
2023-01-29T20:48:26.616Z,56.88
2023-01-29T20:51:31.723Z,47.90
2023-01-29T20:54:35.808Z,35.27
2023-01-29T20:57:40.099Z,42.67
2023-01-29T21:00:45.345Z,28.23
2023-01-29T21:03:49.401Z,27.70
2023-01-29T21:06:53.178Z,27.40
2023-01-29T21:09:56.863Z,25.73
2023-01-29T21:13:00.830Z,21.42
2023-01-29T21:16:05.364Z,26.23
2023-01-29T21:19:10.317Z,26.35
2023-01-29T21:22:14.332Z,13.00
2023-01-29T21:25:21.018Z,37.07
2023-01-29T21:28:24.266Z,24.38
2023-01-29T21:31:28.319Z,33.72
2023-01-29T21:34:32.086Z,27.83
2023-01-29T21:37:38.731Z,30.48
2023-01-29T21:40:42.325Z,22.88
2023-01-29T21:43:46.369Z,25.58
2023-01-29T21:46:49.843Z,21.48
2023-01-29T21:49:54.052Z,30.60
2023-01-29T21:52:57.747Z,30.17
2023-01-29T21:56:06.862Z,40.10
2023-01-29T21:59:11.992Z,37.38
2023-01-29T22:02:16.731Z,16.35
2023-01-29T22:05:20.657Z,9.60
2023-01-29T22:08:24.643Z,25.40
2023-01-29T22:11:28.296Z,19.88
2023-01-29T22:14:32.311Z,17.58
2023-01-29T22:17:35.974Z,27.05
2023-01-29T22:20:39.568Z,19.88
2023-01-29T22:23:43.222Z,26.30
2023-01-29T22:26:48.545Z,26.10
2023-01-29T22:29:52.280Z,23.05
2023-01-29T22:32:55.969Z,18.25
2023-01-29T22:35:59.688Z,21.13
2023-01-29T22:39:04.385Z,50.88
2023-01-29T22:42:08.464Z,35.10
2023-01-29T22:45:12.858Z,43.47
2023-01-29T22:48:16.577Z,33.15
2023-01-29T22:51:19.842Z,29.27
2023-01-29T22:54:23.402Z,24.90
2023-01-29T22:57:27.336Z,31.13
2023-01-29T23:00:30.561Z,38.38
2023-01-29T23:03:35.292Z,35.78
2023-01-29T23:06:38.901Z,30.73
2023-01-29T23:09:42.959Z,27.38
2023-01-29T23:12:46.609Z,22.48
2023-01-29T23:16:00.255Z,24.45
2023-01-29T23:19:03.633Z,27.38
2023-01-29T23:22:07.564Z,21.75
2023-01-29T23:25:11.293Z,16.75
2023-01-29T23:28:15.626Z,24.40
2023-01-29T23:31:19.080Z,20.30
2023-01-29T23:34:23.288Z,17.63
2023-01-29T23:37:27.251Z,15.33
2023-01-29T23:40:31.153Z,22.90
2023-01-29T23:43:35.129Z,13.75
2023-01-29T23:46:38.453Z,22.63
2023-01-29T23:49:42.145Z,13.73
2023-01-29T23:52:46.093Z,17.48
2023-01-29T23:55:58.975Z,21.90
2023-01-29T23:59:02.952Z,24.43
